createdAt,value
2023-04-19T00:00:18.622Z,13.07
2023-04-19T00:02:49.610Z,13.87
2023-04-19T00:05:22.487Z,13.80
2023-04-19T00:07:51.063Z,13.37
2023-04-19T00:10:19.441Z,12.73
2023-04-19T00:12:47.809Z,13.10
2023-04-19T00:15:16.136Z,13.33
2023-04-19T00:17:44.816Z,13.30
2023-04-19T00:20:13.507Z,13.00
2023-04-19T00:22:43.263Z,13.10
2023-04-19T00:25:11.530Z,13.03
2023-04-19T00:27:39.654Z,12.50
2023-04-19T00:30:08.851Z,13.27
2023-04-19T00:32:37.047Z,11.83
2023-04-19T00:35:05.469Z,11.73
2023-04-19T00:37:33.713Z,12.93
2023-04-19T00:40:04.493Z,13.03
2023-04-19T00:42:33.649Z,12.73
2023-04-19T00:45:01.651Z,12.37
2023-04-19T00:47:30.310Z,14.03
2023-04-19T00:49:58.564Z,12.90
2023-04-19T00:52:27.500Z,12.87
2023-04-19T00:54:56.997Z,12.20
2023-04-19T00:57:26.707Z,12.70
2023-04-19T00:59:56.888Z,12.33
2023-04-19T01:02:25.317Z,12.50
2023-04-19T01:04:53.979Z,12.67
2023-04-19T01:07:22.066Z,12.47
2023-04-19T01:09:50.625Z,12.77
2023-04-19T01:12:18.832Z,11.93
2023-04-19T01:14:48.828Z,11.90
2023-04-19T01:17:18.439Z,12.40
2023-04-19T01:19:47.444Z,12.90
2023-04-19T01:22:19.896Z,11.60
2023-04-19T01:24:47.974Z,12.00
2023-04-19T01:27:17.621Z,12.80
2023-04-19T01:29:46.226Z,12.00
2023-04-19T01:32:14.599Z,12.00
2023-04-19T01:34:43.285Z,11.83
2023-04-19T01:37:11.596Z,12.47
2023-04-19T01:39:41.127Z,12.73
2023-04-19T01:42:09.344Z,12.43
2023-04-19T01:44:37.765Z,12.87
2023-04-19T01:47:07.078Z,13.30
2023-04-19T01:49:35.577Z,12.90
2023-04-19T01:52:03.689Z,12.77
2023-04-19T01:54:31.922Z,12.00
2023-04-19T01:57:01.595Z,12.30
2023-04-19T01:59:30.008Z,12.40
2023-04-19T02:01:58.156Z,13.10
2023-04-19T02:04:28.166Z,12.57
2023-04-19T02:06:56.264Z,13.47
2023-04-19T02:09:24.563Z,13.37
2023-04-19T02:11:52.714Z,12.50
2023-04-19T02:14:22.471Z,14.13
2023-04-19T02:16:50.692Z,14.10
2023-04-19T02:19:19.299Z,13.17
2023-04-19T02:21:48.880Z,13.40
2023-04-19T02:24:17.267Z,13.10
2023-04-19T02:26:45.860Z,13.37
2023-04-19T02:29:14.292Z,12.83
2023-04-19T02:31:45.705Z,12.53
2023-04-19T02:34:14.326Z,13.40
2023-04-19T02:36:42.543Z,13.63
2023-04-19T02:39:10.743Z,13.33
2023-04-19T02:41:39.123Z,13.27
2023-04-19T02:44:07.177Z,13.57
2023-04-19T02:46:35.477Z,13.13
2023-04-19T02:49:07.124Z,13.77
2023-04-19T02:51:35.438Z,13.60
2023-04-19T02:54:03.792Z,14.23
2023-04-19T02:56:31.928Z,14.10
2023-04-19T02:59:02.001Z,14.80
2023-04-19T03:01:30.647Z,13.63
2023-04-19T03:03:59.735Z,13.90
2023-04-19T03:06:30.027Z,14.53
2023-04-19T03:08:58.144Z,14.27
2023-04-19T03:11:26.573Z,14.30
2023-04-19T03:13:56.173Z,14.90
2023-04-19T03:16:26.720Z,14.17
2023-04-19T03:18:55.330Z,15.10
2023-04-19T03:21:27.509Z,13.67
2023-04-19T03:23:58.324Z,13.77
2023-04-19T03:26:27.196Z,13.13
2023-04-19T03:28:56.189Z,13.13
2023-04-19T03:31:24.691Z,12.97
2023-04-19T03:33:52.872Z,13.27
2023-04-19T03:36:20.902Z,13.67
2023-04-19T03:38:49.001Z,13.10
2023-04-19T03:41:22.900Z,13.60
2023-04-19T03:43:51.240Z,14.27
2023-04-19T03:46:21.648Z,13.70
2023-04-19T03:48:50.106Z,14.27
2023-04-19T03:51:18.518Z,12.97
2023-04-19T03:53:47.634Z,13.20
2023-04-19T03:56:16.048Z,12.47
2023-04-19T03:58:45.646Z,13.33
2023-04-19T04:01:22.240Z,12.63
2023-04-19T04:03:50.753Z,13.20
2023-04-19T04:06:19.234Z,11.87
2023-04-19T04:08:47.841Z,12.67
2023-04-19T04:11:16.006Z,11.67
2023-04-19T04:13:47.337Z,11.70
2023-04-19T04:16:15.502Z,10.73
2023-04-19T04:18:43.974Z,11.53
2023-04-19T04:21:12.127Z,10.23
2023-04-19T04:23:40.714Z,9.80
2023-04-19T04:26:10.176Z,9.87
2023-04-19T04:28:38.341Z,9.60
2023-04-19T04:31:13.264Z,8.90
2023-04-19T04:33:41.873Z,8.30
2023-04-19T04:36:12.137Z,9.23
2023-04-19T04:38:40.304Z,8.20
2023-04-19T04:41:08.954Z,8.10
2023-04-19T04:43:38.502Z,8.10
2023-04-19T04:46:09.203Z,7.13
2023-04-19T04:48:37.686Z,7.70
2023-04-19T04:51:06.158Z,7.20
2023-04-19T04:53:34.852Z,7.03
2023-04-19T04:56:03.275Z,6.83
2023-04-19T04:58:31.424Z,6.60
2023-04-19T05:01:00.204Z,6.03
2023-04-19T05:03:30.357Z,6.90
2023-04-19T05:05:58.436Z,5.93
2023-04-19T05:08:26.966Z,6.33
2023-04-19T05:10:55.450Z,6.03
2023-04-19T05:13:23.591Z,5.97
2023-04-19T05:15:51.622Z,6.33
2023-04-19T05:18:20.059Z,5.67
2023-04-19T05:20:49.790Z,6.30
2023-04-19T05:23:19.190Z,6.47
2023-04-19T05:25:47.886Z,5.53
2023-04-19T05:28:16.000Z,5.93
2023-04-19T05:30:44.248Z,5.23
2023-04-19T05:33:12.667Z,4.97
2023-04-19T05:35:41.127Z,5.20
2023-04-19T05:38:10.913Z,4.23
2023-04-19T05:40:40.417Z,5.10
2023-04-19T05:43:08.781Z,4.53
2023-04-19T05:45:36.892Z,4.10
2023-04-19T05:48:05.568Z,4.70
2023-04-19T05:50:34.076Z,4.80
2023-04-19T05:53:02.109Z,4.97
2023-04-19T05:55:31.946Z,4.83
2023-04-19T05:58:00.051Z,5.10
2023-04-19T06:00:28.889Z,4.70
2023-04-19T06:02:57.516Z,5.00
2023-04-19T06:05:26.314Z,4.80
2023-04-19T06:08:02.627Z,4.80
2023-04-19T06:10:44.525Z,4.73
2023-04-19T06:13:20.789Z,4.83
2023-04-19T06:15:49.240Z,5.30
2023-04-19T06:18:19.543Z,4.73
2023-04-19T06:20:48.612Z,5.20
2023-04-19T06:23:18.749Z,4.50
2023-04-19T06:25:49.312Z,5.80
2023-04-19T06:28:17.501Z,7.83
2023-04-19T06:30:45.679Z,7.93
2023-04-19T06:33:13.842Z,5.07
2023-04-19T06:35:42.258Z,5.70
2023-04-19T06:38:10.414Z,5.40
2023-04-19T06:40:38.575Z,5.50
2023-04-19T06:43:08.081Z,7.20
2023-04-19T06:45:36.563Z,6.80
2023-04-19T06:48:05.221Z,6.50
2023-04-19T06:50:33.398Z,5.23
2023-04-19T06:53:04.088Z,5.10
2023-04-19T06:55:34.164Z,5.63
2023-04-19T06:58:02.221Z,5.13
2023-04-19T07:00:32.088Z,4.73
2023-04-19T07:03:01.652Z,5.37
2023-04-19T07:05:30.355Z,5.40
2023-04-19T07:07:58.915Z,5.10
2023-04-19T07:10:27.143Z,4.87
2023-04-19T07:12:55.522Z,4.87
2023-04-19T07:15:24.013Z,5.00
2023-04-19T07:17:53.699Z,5.27
2023-04-19T07:20:22.198Z,4.80
2023-04-19T07:22:50.605Z,5.53
2023-04-19T07:25:19.138Z,5.00
2023-04-19T07:27:47.449Z,5.20
2023-04-19T07:30:15.842Z,5.67
2023-04-19T07:32:44.168Z,5.03
2023-04-19T07:35:14.218Z,5.33
2023-04-19T07:37:42.347Z,5.17
2023-04-19T07:40:12.149Z,5.40
2023-04-19T07:42:40.969Z,5.53
2023-04-19T07:45:10.356Z,5.83
2023-04-19T07:47:39.857Z,5.30
2023-04-19T07:50:09.556Z,5.50
2023-04-19T07:52:39.392Z,5.77
2023-04-19T07:55:08.764Z,5.97
2023-04-19T07:57:37.119Z,5.13
2023-04-19T08:00:06.310Z,5.73
2023-04-19T08:02:34.721Z,5.13
2023-04-19T08:05:03.973Z,5.60
2023-04-19T08:07:32.237Z,5.80
2023-04-19T08:10:01.993Z,5.70
2023-04-19T08:12:38.323Z,5.03
2023-04-19T08:15:29.628Z,5.33
2023-04-19T08:17:59.511Z,5.60
2023-04-19T08:20:27.785Z,5.27
2023-04-19T08:22:56.375Z,6.20
2023-04-19T08:25:28.809Z,6.37
2023-04-19T08:27:57.626Z,5.77
2023-04-19T08:30:26.019Z,6.50
2023-04-19T08:32:56.896Z,6.67
2023-04-19T08:35:25.785Z,6.87
2023-04-19T08:37:54.204Z,6.03
2023-04-19T08:40:22.506Z,6.53
2023-04-19T08:42:52.257Z,6.40
2023-04-19T08:48:00.704Z,6.93
2023-04-19T08:50:37.111Z,6.30
2023-04-19T08:53:23.807Z,5.87
2023-04-19T08:56:12.926Z,6.37
2023-04-19T09:01:33.629Z,6.60
2023-04-19T09:04:25.961Z,5.90
2023-04-19T09:06:54.608Z,5.43
2023-04-19T09:11:59.698Z,5.03
2023-04-19T09:14:31.712Z,5.57
2023-04-19T09:17:14.888Z,5.43
2023-04-19T09:19:52.133Z,5.57
2023-04-19T09:22:20.509Z,6.30
2023-04-19T09:27:27.737Z,5.20
2023-04-19T09:30:00.712Z,5.57
2023-04-19T09:32:31.880Z,5.20
2023-04-19T09:35:01.901Z,5.33
2023-04-19T09:37:56.814Z,5.50
2023-04-19T09:40:27.415Z,5.37
2023-04-19T09:45:31.241Z,5.37
2023-04-19T09:48:04.483Z,4.50
2023-04-19T09:50:34.030Z,5.10
2023-04-19T09:53:07.922Z,5.33
2023-04-19T09:55:48.612Z,4.90
2023-04-19T09:58:29.394Z,4.60
2023-04-19T10:01:14.967Z,4.40
2023-04-19T10:03:46.363Z,4.33
2023-04-19T10:06:35.662Z,4.00
2023-04-19T10:09:07.421Z,4.53
2023-04-19T10:11:41.540Z,3.97
2023-04-19T10:14:12.565Z,3.40
2023-04-19T10:16:42.334Z,3.50
2023-04-19T10:19:13.508Z,3.50
2023-04-19T10:21:43.865Z,3.60
2023-04-19T10:24:15.542Z,3.93
2023-04-19T10:27:12.370Z,3.60
2023-04-19T10:29:56.456Z,3.80
2023-04-19T10:32:28.537Z,3.53
2023-04-19T10:34:57.005Z,3.33
2023-04-19T10:37:27.579Z,3.17
2023-04-19T10:39:56.328Z,3.20
2023-04-19T10:42:24.530Z,2.87
2023-04-19T10:45:35.189Z,2.90
2023-04-19T10:48:06.373Z,2.67
2023-04-19T10:51:00.134Z,2.30
2023-04-19T10:53:48.477Z,2.70
2023-04-19T10:56:18.053Z,2.80
2023-04-19T10:59:22.949Z,2.70
2023-04-19T11:01:54.079Z,2.80
2023-04-19T11:04:47.900Z,2.70
2023-04-19T11:07:18.493Z,2.63
2023-04-19T11:09:47.648Z,2.13
2023-04-19T11:12:16.949Z,2.60
2023-04-19T11:14:47.091Z,2.37
2023-04-19T11:17:23.148Z,2.50
2023-04-19T11:19:58.107Z,2.23
2023-04-19T11:22:28.363Z,2.20
2023-04-19T11:24:56.394Z,2.50
2023-04-19T11:27:26.262Z,3.00
2023-04-19T11:30:04.449Z,2.40
2023-04-19T11:32:33.786Z,2.50
2023-04-19T11:35:09.048Z,2.20
2023-04-19T11:37:40.651Z,2.33
2023-04-19T11:40:10.835Z,2.10
2023-04-19T11:42:39.630Z,2.00
2023-04-19T11:45:18.659Z,2.23
2023-04-19T11:47:55.035Z,1.50
2023-04-19T11:50:35.296Z,1.87
2023-04-19T11:53:13.174Z,2.33
2023-04-19T11:55:44.439Z,2.63
2023-04-19T11:58:29.696Z,2.20
2023-04-19T12:01:01.060Z,1.77
2023-04-19T12:03:29.543Z,2.40
2023-04-19T12:06:01.066Z,2.13
2023-04-19T12:08:34.367Z,2.00
2023-04-19T12:11:03.732Z,1.60
2023-04-19T12:13:32.558Z,1.60
2023-04-19T12:16:02.686Z,1.53
2023-04-19T12:18:45.477Z,1.40
2023-04-19T12:21:26.545Z,1.80
2023-04-19T12:23:58.722Z,1.63
2023-04-19T12:26:28.533Z,1.67
2023-04-19T12:28:57.752Z,1.60
2023-04-19T12:31:26.086Z,1.70
2023-04-19T12:33:54.550Z,1.77
2023-04-19T12:36:24.332Z,1.40
2023-04-19T12:38:52.682Z,1.60
2023-04-19T12:41:21.317Z,1.80
2023-04-19T12:43:49.946Z,1.97
2023-04-19T12:46:18.519Z,2.10
2023-04-19T12:48:46.826Z,1.93
2023-04-19T12:51:16.340Z,2.10
2023-04-19T12:53:52.039Z,2.23
2023-04-19T12:56:20.334Z,2.03
2023-04-19T12:58:48.688Z,2.17
2023-04-19T13:01:17.214Z,2.53
2023-04-19T13:03:45.530Z,2.13
2023-04-19T13:06:15.601Z,2.07
2023-04-19T13:08:46.505Z,2.63
2023-04-19T13:11:23.198Z,2.30
2023-04-19T13:13:54.343Z,2.47
2023-04-19T13:16:23.359Z,2.23
2023-04-19T13:18:52.889Z,2.23
2023-04-19T13:21:21.710Z,2.20
2023-04-19T13:23:50.057Z,2.60
2023-04-19T13:26:19.616Z,2.60
2023-04-19T13:28:47.815Z,2.13
2023-04-19T13:31:16.060Z,2.20
2023-04-19T13:33:44.682Z,2.40
2023-04-19T13:36:13.079Z,2.23
2023-04-19T13:38:41.308Z,2.20
2023-04-19T13:41:09.614Z,2.20
2023-04-19T13:43:39.644Z,2.43
2023-04-19T13:46:07.886Z,2.83
2023-04-19T13:48:36.255Z,2.53
2023-04-19T13:51:04.724Z,2.30
2023-04-19T13:53:33.164Z,2.40
2023-04-19T13:56:01.357Z,1.90
2023-04-19T13:58:29.396Z,2.80
2023-04-19T14:00:59.108Z,2.50
2023-04-19T14:03:27.637Z,2.60
2023-04-19T14:05:56.764Z,2.40
2023-04-19T14:08:24.876Z,2.50
2023-04-19T14:10:53.064Z,2.47
2023-04-19T14:13:22.746Z,2.80
2023-04-19T14:15:50.991Z,2.60
2023-04-19T14:18:20.671Z,2.60
2023-04-19T14:20:49.452Z,2.70
2023-04-19T14:23:18.152Z,2.40
2023-04-19T14:25:46.368Z,2.60
2023-04-19T14:28:14.827Z,2.27
2023-04-19T14:30:43.250Z,2.60
2023-04-19T14:33:11.925Z,2.97
2023-04-19T14:35:43.098Z,6.17
2023-04-19T14:38:11.433Z,2.70
2023-04-19T14:40:39.813Z,2.80
2023-04-19T14:43:07.816Z,3.03
2023-04-19T14:45:36.213Z,2.43
2023-04-19T14:48:04.572Z,3.20
2023-04-19T14:50:32.699Z,3.17
2023-04-19T14:53:02.375Z,2.70
2023-04-19T14:55:30.601Z,4.13
2023-04-19T14:57:58.715Z,3.80
2023-04-19T15:00:27.014Z,4.10
2023-04-19T15:02:55.486Z,3.80
2023-04-19T15:05:25.245Z,3.20
2023-04-19T15:07:53.941Z,3.00
2023-04-19T15:10:23.420Z,2.83
2023-04-19T15:12:51.636Z,2.87
2023-04-19T15:15:20.026Z,2.50
2023-04-19T15:17:48.216Z,2.67
2023-04-19T15:20:16.969Z,3.80
2023-04-19T15:22:45.231Z,3.60
2023-04-19T15:25:17.095Z,3.47
2023-04-19T15:27:46.551Z,3.10
2023-04-19T15:30:15.461Z,3.27
2023-04-19T15:32:44.654Z,2.67
2023-04-19T15:35:13.189Z,2.70
2023-04-19T15:37:42.093Z,2.97
2023-04-19T15:40:12.724Z,2.53
2023-04-19T15:42:41.326Z,2.63
2023-04-19T15:45:12.418Z,2.63
2023-04-19T15:47:40.966Z,2.50
2023-04-19T15:50:11.220Z,2.77
2023-04-19T15:52:39.312Z,3.07
2023-04-19T15:55:07.990Z,2.70
2023-04-19T15:57:36.089Z,2.87
2023-04-19T16:00:05.487Z,3.00
2023-04-19T16:02:37.539Z,2.90
2023-04-19T16:05:06.635Z,2.40
2023-04-19T16:07:35.157Z,2.83
2023-04-19T16:10:03.609Z,2.30
2023-04-19T16:12:31.811Z,2.50
2023-04-19T16:15:00.446Z,2.60
2023-04-19T16:17:28.574Z,2.87
2023-04-19T16:19:58.455Z,2.67
2023-04-19T16:22:26.572Z,2.80
2023-04-19T16:24:55.621Z,2.97
2023-04-19T16:27:23.877Z,2.73
2023-04-19T16:29:52.108Z,2.30
2023-04-19T16:32:22.049Z,2.70
2023-04-19T16:34:50.724Z,2.77
2023-04-19T16:37:20.849Z,2.60
2023-04-19T16:39:49.079Z,2.97
2023-04-19T16:42:17.525Z,2.37
2023-04-19T16:44:46.670Z,3.00
2023-04-19T16:47:15.086Z,2.40
2023-04-19T16:49:43.584Z,2.50
2023-04-19T16:52:11.774Z,2.53
2023-04-19T16:54:41.472Z,2.40
2023-04-19T16:57:10.398Z,2.43
2023-04-19T16:59:38.717Z,2.70
2023-04-19T17:02:08.487Z,4.07
2023-04-19T17:04:37.439Z,4.93
2023-04-19T17:07:05.828Z,3.00
2023-04-19T17:09:34.550Z,2.60
2023-04-19T17:12:04.563Z,2.63
2023-04-19T17:14:32.971Z,2.40
2023-04-19T17:17:02.820Z,2.33
2023-04-19T17:19:31.190Z,2.47
2023-04-19T17:22:05.278Z,3.30
2023-04-19T17:24:33.803Z,3.83
2023-04-19T17:27:03.725Z,3.13
2023-04-19T17:29:32.699Z,2.20
2023-04-19T17:32:01.541Z,2.73
2023-04-19T17:34:30.053Z,3.10
2023-04-19T17:37:00.387Z,2.80
2023-04-19T17:39:29.158Z,2.43
2023-04-19T17:41:57.911Z,2.40
2023-04-19T17:44:27.955Z,2.40
2023-04-19T17:46:56.660Z,1.80
2023-04-19T17:49:26.733Z,2.30
2023-04-19T17:51:56.905Z,3.80
2023-04-19T17:54:25.348Z,2.40
2023-04-19T17:56:54.727Z,2.50
2023-04-19T17:59:22.808Z,2.53
2023-04-19T18:01:52.711Z,2.47
2023-04-19T18:04:21.830Z,2.10
2023-04-19T18:06:50.251Z,1.97
2023-04-19T18:09:19.409Z,2.70
2023-04-19T18:11:47.959Z,2.20
2023-04-19T18:14:16.452Z,2.40
2023-04-19T18:16:44.831Z,2.70
2023-04-19T18:19:15.234Z,2.03
2023-04-19T18:21:43.881Z,2.70
2023-04-19T18:24:12.307Z,2.23
2023-04-19T18:26:42.660Z,2.00
2023-04-19T18:29:12.393Z,2.10
2023-04-19T18:31:40.850Z,1.93
2023-04-19T18:34:11.273Z,1.80
2023-04-19T18:36:42.311Z,1.70
2023-04-19T18:39:10.741Z,2.20
2023-04-19T18:41:39.041Z,2.20
2023-04-19T18:44:35.419Z,1.67
2023-04-19T18:46:55.656Z,1.90
2023-04-19T18:49:23.889Z,2.10
2023-04-19T18:51:53.764Z,2.07
2023-04-19T18:54:21.859Z,2.57
2023-04-19T18:57:21.183Z,2.50
2023-04-19T18:59:38.757Z,3.07
2023-04-19T19:02:07.464Z,2.07
2023-04-19T19:04:51.239Z,2.80
2023-04-19T19:09:57.128Z,2.60
2023-04-19T19:12:25.688Z,3.00
2023-04-19T19:14:54.077Z,2.70
2023-04-19T19:17:24.551Z,2.50
2023-04-19T19:19:52.724Z,2.93
2023-04-19T19:22:27.923Z,2.80
2023-04-19T19:24:58.085Z,2.90
2023-04-19T19:27:26.527Z,2.87
2023-04-19T19:29:55.063Z,2.97
2023-04-19T19:32:23.455Z,2.33
2023-04-19T19:34:56.584Z,2.40
2023-04-19T19:37:30.676Z,2.40
2023-04-19T19:40:04.167Z,2.57
2023-04-19T19:42:34.439Z,2.70
2023-04-19T19:45:04.302Z,2.80
2023-04-19T19:47:35.520Z,2.60
2023-04-19T19:50:46.633Z,2.30
2023-04-19T19:52:53.940Z,2.50
2023-04-19T19:55:24.206Z,2.60
2023-04-19T20:00:44.061Z,2.20
2023-04-19T20:03:12.807Z,2.70
2023-04-19T20:05:41.394Z,2.70
2023-04-19T20:08:12.027Z,2.60
2023-04-19T20:10:44.259Z,2.70
2023-04-19T20:13:13.411Z,2.23
2023-04-19T20:15:42.458Z,2.47
2023-04-19T20:18:10.835Z,2.70
2023-04-19T20:20:39.131Z,2.77
2023-04-19T20:23:07.386Z,3.13
2023-04-19T20:25:35.588Z,2.90
2023-04-19T20:28:07.049Z,3.13
2023-04-19T20:30:36.477Z,3.00
2023-04-19T20:33:05.072Z,3.07
2023-04-19T20:35:34.743Z,3.27
2023-04-19T20:38:03.496Z,3.40
2023-04-19T20:40:33.260Z,2.90
2023-04-19T20:43:01.629Z,3.10
2023-04-19T20:45:31.600Z,3.30
2023-04-19T20:47:59.837Z,3.50
2023-04-19T20:50:28.303Z,3.17
2023-04-19T20:52:56.792Z,3.57
2023-04-19T20:55:25.406Z,3.37
2023-04-19T20:57:54.020Z,3.30
2023-04-19T21:00:22.549Z,3.50
2023-04-19T21:02:52.552Z,3.10
2023-04-19T21:05:21.103Z,3.67
2023-04-19T21:07:49.316Z,3.77
2023-04-19T21:10:17.507Z,3.70
2023-04-19T21:12:46.135Z,3.70
2023-04-19T21:15:14.174Z,3.93
2023-04-19T21:17:42.851Z,3.67
2023-04-19T21:20:15.965Z,4.00
2023-04-19T21:22:45.832Z,3.90
2023-04-19T21:25:14.717Z,3.97
2023-04-19T21:27:43.860Z,4.07
2023-04-19T21:30:14.438Z,3.67
2023-04-19T21:32:42.906Z,3.70
2023-04-19T21:35:12.586Z,4.03
2023-04-19T21:37:41.147Z,3.53
2023-04-19T21:40:10.326Z,3.30
2023-04-19T21:42:38.870Z,3.60
2023-04-19T21:45:08.544Z,3.80
2023-04-19T21:47:36.780Z,3.63
2023-04-19T21:50:05.512Z,3.30
2023-04-19T21:52:35.664Z,3.73
2023-04-19T21:55:03.860Z,3.47
2023-04-19T21:57:31.948Z,3.70
2023-04-19T22:00:00.297Z,3.83
2023-04-19T22:02:28.511Z,4.27
2023-04-19T22:04:56.794Z,4.10
2023-04-19T22:07:25.420Z,3.30
2023-04-19T22:09:55.152Z,3.57
2023-04-19T22:12:23.592Z,3.60
2023-04-19T22:14:52.140Z,3.50
2023-04-19T22:17:20.923Z,3.13
2023-04-19T22:19:49.160Z,4.27
2023-04-19T22:22:17.455Z,3.57
2023-04-19T22:24:57.039Z,3.97
2023-04-19T22:27:27.255Z,4.13
2023-04-19T22:29:55.593Z,3.90
2023-04-19T22:32:24.065Z,3.70
2023-04-19T22:34:52.131Z,3.87
2023-04-19T22:37:20.614Z,3.47
2023-04-19T22:39:48.669Z,4.10
2023-04-19T22:42:17.239Z,3.73
2023-04-19T22:44:46.755Z,3.60
2023-04-19T22:47:16.634Z,3.77
2023-04-19T22:49:45.225Z,3.93
2023-04-19T22:52:14.654Z,3.87
2023-04-19T22:54:43.060Z,3.40
2023-04-19T22:57:12.145Z,3.60
2023-04-19T22:59:40.452Z,4.53
2023-04-19T23:02:10.009Z,4.10
2023-04-19T23:04:39.490Z,4.57
2023-04-19T23:07:08.360Z,4.20
2023-04-19T23:09:39.490Z,4.50
2023-04-19T23:12:08.551Z,3.53
2023-04-19T23:14:38.708Z,3.90
2023-04-19T23:17:07.548Z,3.47
2023-04-19T23:19:38.875Z,3.47
2023-04-19T23:22:07.594Z,3.60
2023-04-19T23:24:37.060Z,3.90
2023-04-19T23:27:05.450Z,3.53
2023-04-19T23:29:33.515Z,4.60
2023-04-19T23:32:02.642Z,3.83
2023-04-19T23:34:30.782Z,3.63
2023-04-19T23:37:00.871Z,4.10
2023-04-19T23:39:29.709Z,3.97
2023-04-19T23:41:58.079Z,4.13
2023-04-19T23:44:27.063Z,4.23
2023-04-19T23:46:55.226Z,4.30
2023-04-19T23:49:23.643Z,4.40
2023-04-19T23:51:51.753Z,4.17
2023-04-19T23:54:25.822Z,4.70
2023-04-19T23:56:54.574Z,4.00
2023-04-19T23:59:26.880Z,4.20
